Monday, October 15, 2018, 8:31 AM GMT
Back to Local

CWFQ, Frelighsburg

Location: , , Canada Lat: 45.05
Local Time: 8:31 AM GMT ( 8:31 GMT) Lon: -72.833
Time Zone: GMT Elev: 498 ft

Show me the last for .
Show Coded

Time T Td Feel RH Dir Speed Gust Alt SLP Vis Weather Sky Remarks
2018-10-15 08:00 40 36 37 84 160° 5 - - 30.09 0 None
2018-10-15 07:00 43 36 41 75 160° 5 - - 30.11 0 None
2018-10-15 06:00 43 36 41 74 160° 5 - - 30.12 0 None
2018-10-15 05:00 42 35 41 74 170° 3 - - 30.13 0 None
2018-10-15 04:00 42 34 40 73 170° 3 - - 30.14 0 None
2018-10-15 03:00 43 33 - 68 170° 2 - - 30.15 0 None
2018-10-15 02:00 45 33 44 61 170° 3 - - 30.15 0 None
2018-10-15 01:00 45 32 44 59 160° 3 - - 30.14 0 None
2018-10-15 00:00 47 31 - 54 170° 2 - - 30.14 0 None
2018-10-14 23:00 47 31 - 55 170° 1 - - 30.14 0 None
2018-10-14 22:00 46 32 - 56 - Calm - - 30.14 0 None
2018-10-14 21:00 50 33 - 51 190° 5 - - 30.12 0 None
2018-10-14 20:00 52 30 - 43 250° 3 - - 30.13 0 None
2018-10-14 19:00 52 30 - 43 260° 5 - - 30.13 0 None
2018-10-14 18:00 50 31 - 47 250° 5 - - 30.13 0 None
2018-10-14 17:00 49 31 47 49 240° 6 - - 30.14 0 None
2018-10-14 16:00 46 32 44 56 270° 5 - - 30.15 0 None
2018-10-14 15:00 44 31 41 59 230° 6 - - 30.14 0 None
2018-10-14 14:00 42 34 39 74 200° 5 - - 30.14 0 None
2018-10-14 13:00 42 31 41 64 180° 3 - - 30.14 0 None
2018-10-14 12:00 37 32 - 80 190° 2 - - 30.12 0 None
2018-10-14 11:00 37 32 - 81 200° 2 - - 30.12 0 None
2018-10-14 10:00 37 30 - 76 260° 1 - - 30.09 0 None
2018-10-14 09:00 38 30 - 73 270° 1 - - 30.08 0 None

Support USWX by starting your Amazon purchase here.